Time;durP1;ratioP1;P1;durP2;ratioP2;P2;SDS_P1;SDS_P2;PMS_P1;PMS_P2;Temp;Humidity;BMP_temperature;BMP_pressure;BME280_temperature;BME280_humidity;BME280_pressure;Samples;Min_cycle;Max_cycle;Signal;HPM_P1;HPM_P2
2021/09/04 00:00:29;;;;;;;12.82;6.90;;;15.80;69.00;;;;;;5044223;28;20037;-51
2021/09/04 00:03:13;;;;;;;9.80;6.70;;;15.80;69.10;;;;;;5043896;28;20056;-48
2021/09/04 00:05:57;;;;;;;9.18;7.22;;;15.70;69.00;;;;;;5043781;28;20216;-51
2021/09/04 00:08:42;;;;;;;10.50;7.20;;;15.70;69.10;;;;;;5044277;28;20035;-49
2021/09/04 00:11:26;;;;;;;10.05;6.72;;;15.70;69.10;;;;;;5044129;28;20201;-52
2021/09/04 00:14:10;;;;;;;9.50;6.25;;;15.70;69.20;;;;;;5042762;28;20354;-48
2021/09/04 00:16:55;;;;;;;10.85;7.20;;;15.60;69.10;;;;;;5043658;28;20032;-49
2021/09/04 00:19:39;;;;;;;9.90;6.65;;;15.60;69.20;;;;;;5043539;28;20091;-48
2021/09/04 00:22:23;;;;;;;10.85;6.82;;;15.50;69.20;;;;;;5043569;28;20032;-49
2021/09/04 00:25:08;;;;;;;12.05;6.95;;;15.50;69.10;;;;;;5043469;28;20044;-50
2021/09/04 00:27:52;;;;;;;11.45;6.63;;;15.50;69.10;;;;;;5043503;28;20115;-49
2021/09/04 00:34:18;;;;;;;13.82;6.70;;;15.40;69.20;;;;;;5039729;28;20115;-48
2021/09/04 00:37:03;;;;;;;10.68;6.82;;;15.30;69.40;;;;;;5043652;28;20248;-49
2021/09/04 00:43:28;;;;;;;11.27;6.50;;;15.30;69.80;;;;;;5043901;28;20040;-49
2021/09/04 00:46:13;;;;;;;10.13;6.90;;;15.20;69.90;;;;;;5043240;28;20039;-48
2021/09/04 00:48:57;;;;;;;11.43;7.10;;;15.10;70.00;;;;;;5043213;28;20036;-49
2021/09/04 00:55:23;;;;;;;12.20;6.73;;;15.20;70.10;;;;;;5043818;28;20332;-49
2021/09/04 00:58:07;;;;;;;10.68;7.28;;;15.10;69.90;;;;;;5043294;28;20086;-48
2021/09/04 01:00:52;;;;;;;9.98;6.45;;;15.00;69.90;;;;;;5042340;28;20068;-48
2021/09/04 01:07:18;;;;;;;11.40;6.80;;;15.10;70.00;;;;;;5043501;28;20083;-49
2021/09/04 01:10:02;;;;;;;10.27;6.82;;;15.00;70.10;;;;;;5043281;28;20056;-48
2021/09/04 01:16:37;;;;;;;11.40;6.28;;;15.00;70.20;;;;;;5043595;28;20347;-49
2021/09/04 01:19:22;;;;;;;13.18;6.72;;;14.90;70.10;;;;;;5043174;28;20343;-51
2021/09/04 01:22:06;;;;;;;9.25;6.63;;;14.90;70.20;;;;;;5043142;28;20044;-48
2021/09/04 01:24:51;;;;;;;9.23;6.55;;;14.80;70.20;;;;;;5042819;28;20245;-48
2021/09/04 01:30:57;;;;;;;8.48;5.93;;;14.80;70.10;;;;;;5044257;28;20025;-48
2021/09/04 01:33:44;;;;;;;9.65;6.63;;;14.80;70.20;;;;;;5046310;28;20113;-48
2021/09/04 01:36:38;;;;;;;13.90;6.00;;;14.80;70.30;;;;;;5046917;28;20021;-49
2021/09/04 01:39:23;;;;;;;8.73;6.43;;;14.80;70.30;;;;;;5035539;28;20099;-48
2021/09/04 01:42:07;;;;;;;10.98;6.38;;;14.80;70.30;;;;;;5046842;28;20032;-48
2021/09/04 01:44:51;;;;;;;11.07;6.28;;;14.70;70.40;;;;;;5046299;28;20032;-48
2021/09/04 01:47:35;;;;;;;11.00;6.25;;;14.70;70.20;;;;;;5046152;28;20041;-48
2021/09/04 01:50:19;;;;;;;10.02;6.90;;;14.70;70.10;;;;;;5046514;28;20028;-49
2021/09/04 01:53:03;;;;;;;9.63;6.75;;;14.70;70.20;;;;;;5045204;28;20032;-48
2021/09/04 01:55:47;;;;;;;10.57;6.68;;;14.70;70.10;;;;;;5046066;28;20024;-48
2021/09/04 01:58:32;;;;;;;8.30;6.30;;;14.70;70.20;;;;;;5046243;28;20096;-48
2021/09/04 02:01:16;;;;;;;9.40;6.72;;;14.60;70.20;;;;;;5046023;28;20231;-50
2021/09/04 02:04:01;;;;;;;12.13;6.88;;;14.60;70.10;;;;;;5045000;28;20032;-51
2021/09/04 02:10:26;;;;;;;8.73;6.18;;;14.60;70.00;;;;;;5046401;28;20093;-48
2021/09/04 02:13:10;;;;;;;9.30;5.75;;;14.50;70.00;;;;;;5045851;28;20350;-49
2021/09/04 02:15:55;;;;;;;8.18;6.10;;;14.50;70.00;;;;;;5045963;28;20044;-49
2021/09/04 02:22:20;;;;;;;9.80;6.18;;;14.50;70.00;;;;;;5046098;28;20016;-48
2021/09/04 02:25:05;;;;;;;10.65;6.35;;;14.40;70.00;;;;;;5045450;28;20220;-48
2021/09/04 02:31:30;;;;;;;8.00;5.53;;;14.40;70.20;;;;;;5045978;28;20121;-49
2021/09/04 02:34:14;;;;;;;10.00;6.47;;;14.30;70.20;;;;;;5045359;28;20366;-47
2021/09/04 02:36:58;;;;;;;8.80;6.35;;;14.30;70.20;;;;;;5045368;28;20071;-48
2021/09/04 02:43:24;;;;;;;7.73;5.67;;;14.30;70.20;;;;;;5045477;28;20013;-49
2021/09/04 02:46:09;;;;;;;9.27;5.47;;;14.30;70.20;;;;;;5045132;28;20036;-48
2021/09/04 02:48:53;;;;;;;9.07;6.20;;;14.30;70.00;;;;;;5045186;28;20048;-51
2021/09/04 02:55:19;;;;;;;8.05;5.75;;;14.10;70.00;;;;;;5045487;28;20008;-49
2021/09/04 02:58:03;;;;;;;8.75;5.93;;;14.10;70.00;;;;;;5044927;28;20317;-50
2021/09/04 03:04:28;;;;;;;8.48;5.57;;;14.10;69.90;;;;;;5045282;28;20087;-49
2021/09/04 03:07:12;;;;;;;8.90;5.65;;;14.00;69.80;;;;;;5044795;28;20048;-48
2021/09/04 03:09:56;;;;;;;7.82;5.60;;;14.00;69.80;;;;;;5044754;28;20080;-48
2021/09/04 03:16:21;;;;;;;10.23;5.50;;;13.90;69.60;;;;;;5045074;28;20040;-50
2021/09/04 03:19:05;;;;;;;10.02;5.45;;;13.90;69.70;;;;;;5044608;28;20404;-48
2021/09/04 03:21:49;;;;;;;8.65;6.07;;;13.80;69.60;;;;;;5045108;28;20076;-49
2021/09/04 03:24:35;;;;;;;8.85;5.90;;;13.80;69.70;;;;;;5044757;28;20097;-48
2021/09/04 03:27:19;;;;;;;9.63;5.10;;;13.90;69.70;;;;;;5044611;28;20217;-48
2021/09/04 03:30:04;;;;;;;10.43;5.45;;;13.80;69.70;;;;;;5044456;28;20442;-48
2021/09/04 03:32:48;;;;;;;9.35;5.22;;;13.80;69.60;;;;;;5044600;28;20217;-48
2021/09/04 03:35:33;;;;;;;8.02;5.13;;;13.80;69.80;;;;;;5044663;28;20071;-49
2021/09/04 03:38:17;;;;;;;9.13;4.90;;;13.70;69.70;;;;;;5044529;28;20213;-48
2021/09/04 03:41:02;;;;;;;9.88;5.35;;;13.70;69.60;;;;;;5044431;28;20099;-49
2021/09/04 03:43:46;;;;;;;10.68;5.68;;;13.70;69.50;;;;;;5044319;28;20111;-48
2021/09/04 03:46:30;;;;;;;9.60;5.38;;;13.70;69.60;;;;;;5044185;28;20217;-47
2021/09/04 03:49:14;;;;;;;7.95;5.22;;;13.60;69.70;;;;;;5044148;28;20084;-48
2021/09/04 03:51:59;;;;;;;8.73;5.47;;;13.70;69.50;;;;;;5044019;28;20040;-48
2021/09/04 03:58:24;;;;;;;8.25;5.30;;;13.60;69.80;;;;;;5044935;28;20056;-49
2021/09/04 04:01:08;;;;;;;8.52;5.20;;;13.50;69.60;;;;;;5043921;28;20072;-48
2021/09/04 04:03:53;;;;;;;7.22;4.88;;;13.50;69.60;;;;;;5043799;28;20390;-48
2021/09/04 04:10:18;;;;;;;10.38;5.15;;;13.50;69.70;;;;;;5044199;28;20359;-49
2021/09/04 04:13:02;;;;;;;6.88;5.10;;;13.50;69.60;;;;;;5043663;28;20087;-51
2021/09/04 04:19:28;;;;;;;7.35;5.40;;;13.50;69.80;;;;;;5044098;28;20016;-48
2021/09/04 04:22:13;;;;;;;8.77;5.38;;;13.40;69.70;;;;;;5043602;28;20076;-48
2021/09/04 04:24:57;;;;;;;10.57;6.07;;;13.40;69.70;;;;;;5043408;28;20032;-48
2021/09/04 04:31:23;;;;;;;10.50;5.65;;;13.40;70.00;;;;;;5043989;28;20077;-50
2021/09/04 04:34:07;;;;;;;8.68;5.53;;;13.40;69.90;;;;;;5043301;28;20075;-48
2021/09/04 04:40:32;;;;;;;8.18;5.45;;;13.30;70.10;;;;;;5043903;28;20047;-47
2021/09/04 04:43:16;;;;;;;8.98;5.45;;;13.30;70.00;;;;;;5043385;28;20032;-48
2021/09/04 04:46:00;;;;;;;8.52;5.22;;;13.30;70.10;;;;;;5043368;28;20308;-49
2021/09/04 04:52:26;;;;;;;8.75;5.10;;;13.30;70.30;;;;;;5043747;28;20013;-49
2021/09/04 04:55:10;;;;;;;8.77;5.72;;;13.30;70.30;;;;;;5043392;28;20091;-48
2021/09/04 04:57:54;;;;;;;7.10;5.10;;;13.30;70.30;;;;;;5043323;28;20028;-48
2021/09/04 05:04:20;;;;;;;7.90;5.03;;;13.30;70.40;;;;;;5043709;28;20017;-48
2021/09/04 05:07:04;;;;;;;7.72;4.97;;;13.30;70.40;;;;;;5047042;28;20041;-49
2021/09/04 05:13:29;;;;;;;8.30;4.85;;;13.30;70.70;;;;;;5047515;28;20112;-49
2021/09/04 05:16:15;;;;;;;8.02;5.20;;;13.30;70.80;;;;;;5047014;28;20067;-48
2021/09/04 05:18:58;;;;;;;7.32;5.10;;;13.40;70.90;;;;;;5045930;28;20400;-47
2021/09/04 05:25:23;;;;;;;8.83;5.50;;;13.40;71.60;;;;;;5047202;28;20060;-49
2021/09/04 05:28:08;;;;;;;6.60;4.70;;;13.40;71.50;;;;;;5046765;28;20071;-48
2021/09/04 05:30:52;;;;;;;7.40;5.32;;;13.40;71.50;;;;;;5046617;28;20032;-49
2021/09/04 05:33:36;;;;;;;7.78;5.25;;;13.40;71.40;;;;;;5046292;28;20087;-48
2021/09/04 05:36:20;;;;;;;11.32;5.53;;;13.50;71.50;;;;;;5046947;28;20025;-49
2021/09/04 05:39:04;;;;;;;8.38;5.57;;;13.50;71.70;;;;;;5046655;28;20077;-49
2021/09/04 05:41:49;;;;;;;8.07;5.47;;;13.60;71.90;;;;;;5046959;28;20048;-48
2021/09/04 05:44:33;;;;;;;10.82;5.43;;;13.60;72.00;;;;;;5046858;28;20032;-48
2021/09/04 05:47:17;;;;;;;7.68;5.30;;;13.70;72.00;;;;;;5046524;28;20092;-49
2021/09/04 05:50:03;;;;;;;10.75;5.80;;;13.80;71.90;;;;;;5046162;28;20031;-50
2021/09/04 05:52:47;;;;;;;8.68;5.68;;;13.80;72.20;;;;;;5046382;28;20075;-48
2021/09/04 05:55:31;;;;;;;8.05;5.53;;;13.90;72.40;;;;;;5046072;28;20328;-51
2021/09/04 05:58:15;;;;;;;7.93;5.20;;;13.90;72.40;;;;;;5046221;28;20036;-50
2021/09/04 06:01:00;;;;;;;8.88;5.93;;;14.00;72.60;;;;;;5046038;28;20032;-48
2021/09/04 06:03:44;;;;;;;7.78;5.30;;;14.10;72.70;;;;;;5044912;28;20031;-48
2021/09/04 06:06:28;;;;;;;9.45;6.10;;;14.10;73.10;;;;;;5046312;28;20033;-48
2021/09/04 06:09:12;;;;;;;11.30;6.57;;;14.20;73.50;;;;;;5046076;28;20036;-48
2021/09/04 06:11:57;;;;;;;11.88;6.40;;;14.20;74.10;;;;;;5045992;28;20035;-48
2021/09/04 06:14:41;;;;;;;9.45;6.10;;;14.40;74.50;;;;;;5046547;28;20093;-49
2021/09/04 06:17:26;;;;;;;8.88;5.55;;;14.40;74.80;;;;;;5045112;28;20105;-49
2021/09/04 06:20:11;;;;;;;9.88;6.22;;;14.50;74.70;;;;;;5045679;28;20241;-48
2021/09/04 06:22:55;;;;;;;10.45;6.22;;;14.60;74.60;;;;;;5045564;28;20032;-49
2021/09/04 06:25:39;;;;;;;11.23;5.95;;;14.70;74.70;;;;;;5045537;28;20079;-49
2021/09/04 06:28:23;;;;;;;11.43;6.22;;;14.80;74.60;;;;;;5045531;28;20248;-48
2021/09/04 06:31:08;;;;;;;10.27;6.00;;;14.90;74.70;;;;;;5044486;28;20031;-49
2021/09/04 06:33:52;;;;;;;9.40;5.90;;;15.10;74.70;;;;;;5045159;28;20087;-49
2021/09/04 06:40:17;;;;;;;8.80;5.68;;;15.40;74.90;;;;;;5045791;28;20023;-51
2021/09/04 06:43:02;;;;;;;9.55;6.45;;;15.50;74.50;;;;;;5045291;28;20079;-52
2021/09/04 06:49:27;;;;;;;12.20;5.87;;;15.80;75.30;;;;;;5045675;28;20029;-49
2021/09/04 06:52:11;;;;;;;9.07;6.80;;;15.80;75.00;;;;;;5045364;28;20314;-48
2021/09/04 06:54:55;;;;;;;8.02;6.00;;;16.00;75.40;;;;;;5044996;28;20029;-48
2021/09/04 07:01:20;;;;;;;12.10;6.60;;;16.30;75.90;;;;;;5045400;28;20013;-48
2021/09/04 07:04:05;;;;;;;7.93;5.80;;;16.60;75.30;;;;;;5044815;28;20209;-48
2021/09/04 07:10:30;;;;;;;8.60;6.13;;;17.90;72.70;;;;;;5045244;28;20012;-49
2021/09/04 07:13:14;;;;;;;10.40;6.03;;;18.50;71.10;;;;;;5043822;28;20036;-48
2021/09/04 07:15:58;;;;;;;10.25;6.20;;;18.90;69.90;;;;;;5044652;28;20346;-49
2021/09/04 07:22:24;;;;;;;10.00;6.50;;;20.40;65.70;;;;;;5045041;28;20206;-48
2021/09/04 07:25:08;;;;;;;11.00;5.93;;;22.10;61.30;;;;;;5044421;28;20032;-49
2021/09/04 07:27:53;;;;;;;8.43;5.95;;;23.20;57.50;;;;;;5044204;28;20037;-51
2021/09/04 07:34:18;;;;;;;8.57;5.45;;;24.50;52.60;;;;;;5042028;28;20065;-50
2021/09/04 07:37:02;;;;;;;8.60;6.22;;;25.10;51.70;;;;;;5044180;28;20075;-48
2021/09/04 07:43:28;;;;;;;8.15;6.10;;;23.30;55.40;;;;;;5044641;28;20012;-49
2021/09/04 07:46:11;;;;;;;10.80;5.53;;;24.30;54.20;;;;;;5044071;28;20032;-51
2021/09/04 07:48:56;;;;;;;7.93;5.90;;;25.00;51.80;;;;;;5044071;28;20225;-49
2021/09/04 07:55:21;;;;;;;9.00;5.90;;;23.90;53.60;;;;;;5044405;28;20373;-49
2021/09/04 07:58:05;;;;;;;7.15;5.22;;;23.40;56.00;;;;;;5043971;28;20055;-50
2021/09/04 08:00:49;;;;;;;7.13;5.35;;;23.10;57.00;;;;;;5043888;28;20104;-49
2021/09/04 08:03:34;;;;;;;7.00;5.00;;;22.80;58.30;;;;;;5043390;28;20072;-49
2021/09/04 08:06:18;;;;;;;9.50;6.18;;;22.70;58.90;;;;;;5043821;28;20056;-50
2021/09/04 08:09:02;;;;;;;8.60;6.15;;;22.30;59.50;;;;;;5043878;28;20086;-49
2021/09/04 08:11:46;;;;;;;11.45;6.25;;;22.30;60.20;;;;;;5043199;28;20060;-51
2021/09/04 08:14:30;;;;;;;8.45;5.60;;;22.10;60.60;;;;;;5043615;28;20040;-49
2021/09/04 08:17:15;;;;;;;8.40;5.93;;;22.00;60.90;;;;;;5044015;28;20040;-52
2021/09/04 08:20:02;;;;;;;9.05;6.28;;;21.80;61.10;;;;;;5043668;28;20067;-51
2021/09/04 08:22:46;;;;;;;9.48;6.53;;;21.70;62.00;;;;;;5044469;28;20033;-51
2021/09/04 08:25:30;;;;;;;7.88;6.10;;;21.70;62.30;;;;;;5044325;28;20032;-50
2021/09/04 08:28:15;;;;;;;7.28;5.95;;;21.60;61.70;;;;;;5043795;28;20044;-50
2021/09/04 08:30:59;;;;;;;9.18;6.15;;;21.50;63.00;;;;;;5043903;28;20040;-50
2021/09/04 08:33:43;;;;;;;9.30;5.93;;;21.50;62.90;;;;;;5043344;28;20053;-49
2021/09/04 08:36:27;;;;;;;8.98;6.28;;;21.50;63.70;;;;;;5043168;28;20248;-49
2021/09/04 08:39:12;;;;;;;9.45;6.25;;;21.50;62.70;;;;;;5044280;28;20080;-49
2021/09/04 08:41:56;;;;;;;10.20;5.93;;;21.60;62.10;;;;;;5047553;28;20055;-49
2021/09/04 08:44:40;;;;;;;8.88;6.10;;;21.70;62.40;;;;;;5047979;28;20213;-51
2021/09/04 08:47:25;;;;;;;12.63;7.10;;;21.80;62.60;;;;;;5047439;28;20390;-53
2021/09/04 08:50:10;;;;;;;8.88;5.55;;;21.80;62.30;;;;;;5046769;28;20205;-52
2021/09/04 08:52:54;;;;;;;10.40;6.32;;;21.80;62.30;;;;;;5032467;28;20083;-51
2021/09/04 08:55:38;;;;;;;7.75;5.93;;;21.90;61.90;;;;;;5047507;28;20036;-51
2021/09/04 08:58:22;;;;;;;9.10;6.45;;;22.00;62.70;;;;;;5047032;28;20403;-52
2021/09/04 09:01:22;;;;;;;12.13;6.60;;;22.00;61.10;;;;;;5047265;28;20076;-52
2021/09/04 09:04:06;;;;;;;8.57;6.38;;;22.00;60.30;;;;;;5047184;28;20036;-51
2021/09/04 09:06:51;;;;;;;9.55;6.13;;;22.10;60.50;;;;;;5047012;28;20099;-48
2021/09/04 09:09:35;;;;;;;9.30;6.43;;;22.30;61.40;;;;;;5047618;28;20060;-49
2021/09/04 09:12:19;;;;;;;11.45;6.15;;;22.40;61.70;;;;;;5047678;28;20075;-49
2021/09/04 09:15:04;;;;;;;9.60;6.05;;;22.50;61.80;;;;;;5032192;28;20117;-52
2021/09/04 09:18:07;;;;;;;8.18;5.10;;;22.50;60.10;;;;;;5047424;28;20124;-53
2021/09/04 09:20:59;;;;;;;9.05;5.22;;;22.70;57.20;;;;;;5046817;28;20033;-49
2021/09/04 09:23:43;;;;;;;7.60;5.10;;;22.70;55.40;;;;;;5047021;28;20271;-49
2021/09/04 09:26:29;;;;;;;6.65;4.75;;;22.80;57.60;;;;;;5047077;28;20205;-49
2021/09/04 09:29:17;;;;;;;6.55;4.63;;;23.00;57.00;;;;;;5046983;28;20072;-49
2021/09/04 09:32:12;;;;;;;8.85;4.63;;;23.00;54.40;;;;;;5046915;28;20075;-50
2021/09/04 09:34:57;;;;;;;8.00;4.70;;;23.00;52.50;;;;;;5046706;28;20087;-53
2021/09/04 09:37:49;;;;;;;7.57;4.60;;;23.10;53.60;;;;;;5046761;28;20025;-50
2021/09/04 09:40:34;;;;;;;6.97;4.78;;;23.20;53.10;;;;;;5046701;28;20075;-51
2021/09/04 09:43:23;;;;;;;7.70;5.30;;;23.30;52.80;;;;;;5046388;28;20109;-53
2021/09/04 09:46:07;;;;;;;6.43;4.40;;;23.30;53.10;;;;;;5046309;28;20079;-53
2021/09/04 09:48:55;;;;;;;7.30;5.10;;;23.50;54.20;;;;;;5046557;28;20120;-50
2021/09/04 09:55:20;;;;;;;8.82;4.78;;;23.60;51.10;;;;;;5046710;28;20331;-52
2021/09/04 09:58:04;;;;;;;6.45;4.53;;;23.70;53.40;;;;;;5046229;28;20072;-49
2021/09/04 10:04:31;;;;;;;;;;;24.00;54.90;;;;;;5046930;28;20044;-51
2021/09/04 10:07:16;;;;;;;6.57;4.35;;;24.10;52.00;;;;;;5050420;28;20132;-52
2021/09/04 10:10:00;;;;;;;7.18;5.25;;;24.30;55.00;;;;;;5045055;28;20037;-53
2021/09/04 10:16:25;;;;;;;8.05;4.57;;;24.50;54.90;;;;;;5046310;28;20075;-51
2021/09/04 10:19:10;;;;;;;7.13;4.43;;;24.70;54.40;;;;;;5045932;28;20041;-50
2021/09/04 10:22:04;;;;;;;7.05;4.50;;;24.60;52.60;;;;;;5045169;28;20032;-51
2021/09/04 10:24:53;;;;;;;7.57;4.70;;;24.70;50.50;;;;;;5045598;28;20364;-51
2021/09/04 10:31:18;;;;;;;4.63;3.08;;;24.70;42.60;;;;;;5046094;28;20076;-53
2021/09/04 10:34:16;;;;;;;4.70;3.20;;;24.80;45.50;;;;;;5030425;28;20105;-52
2021/09/04 10:37:03;;;;;;;4.43;3.13;;;24.80;45.00;;;;;;5045603;28;20216;-52
2021/09/04 10:43:28;;;;;;;5.45;3.40;;;24.80;42.30;;;;;;5045699;28;20025;-53
2021/09/04 10:46:15;;;;;;;6.70;3.60;;;24.80;43.40;;;;;;5044291;28;20067;-54
2021/09/04 10:49:01;;;;;;;5.45;3.95;;;24.80;44.80;;;;;;5044167;28;20035;-54
2021/09/04 10:55:35;;;;;;;7.25;3.97;;;25.30;47.30;;;;;;5045450;28;20124;-52
2021/09/04 10:58:19;;;;;;;8.18;4.45;;;25.30;45.70;;;;;;5044908;28;20040;-53
2021/09/04 11:01:03;;;;;;;5.50;4.15;;;25.30;46.30;;;;;;5044727;28;20024;-53
2021/09/04 11:07:45;;;;;;;6.15;4.03;;;25.30;43.40;;;;;;5045225;28;20029;-53
2021/09/04 11:10:29;;;;;;;7.10;3.95;;;25.40;45.30;;;;;;5044770;28;20344;-52
2021/09/04 11:13:13;;;;;;;6.93;3.70;;;25.40;44.80;;;;;;5044032;28;20197;-53
2021/09/04 11:16:22;;;;;;;5.45;3.50;;;25.50;44.90;;;;;;5044515;28;20226;-51
2021/09/04 11:19:13;;;;;;;5.78;3.42;;;25.30;42.70;;;;;;5043882;28;20076;-53
2021/09/04 11:21:57;;;;;;;4.60;3.40;;;25.30;42.30;;;;;;5043614;28;20044;-54
2021/09/04 11:28:29;;;;;;;;;;;25.40;41.90;;;;;;5051899;28;20056;-53
2021/09/04 11:31:16;;;;;;;7.28;3.85;;;25.70;45.80;;;;;;5044435;28;19912;-52
2021/09/04 11:34:00;;;;;;;6.18;3.50;;;25.80;44.90;;;;;;5044137;28;20160;-50
2021/09/04 11:40:28;;;;;;;;;;;25.70;40.00;;;;;;5045066;28;20355;-54
2021/09/04 11:43:14;;;;;;;5.10;3.08;;;25.60;40.30;;;;;;5044152;28;19912;-53
2021/09/04 11:46:05;;;;;;;4.90;3.58;;;25.70;41.50;;;;;;5043091;28;20098;-54
2021/09/04 11:48:54;;;;;;;4.53;3.30;;;25.60;42.30;;;;;;5043991;28;20075;-55
2021/09/04 11:55:20;;;;;;;;;;;25.80;41.70;;;;;;5044748;28;20013;-49
2021/09/04 11:58:09;;;;;;;4.80;3.40;;;25.70;39.90;;;;;;5048713;28;20254;-54
2021/09/04 12:00:55;;;;;;;4.47;3.10;;;25.60;40.20;;;;;;5043796;28;20085;-50
2021/09/04 12:07:27;;;;;;;4.35;3.22;;;25.70;38.90;;;;;;5044100;28;20052;-53
2021/09/04 12:10:12;;;;;;;5.88;3.13;;;25.80;41.00;;;;;;5042982;28;20076;-53
2021/09/04 12:12:58;;;;;;;4.13;3.13;;;25.80;42.80;;;;;;5043918;28;20043;-52
2021/09/04 12:19:23;;;;;;;5.03;3.28;;;25.90;40.10;;;;;;5044327;28;20260;-52
2021/09/04 12:22:07;;;;;;;4.93;3.40;;;26.00;41.30;;;;;;5043763;28;20052;-53
2021/09/04 12:24:51;;;;;;;7.38;3.22;;;26.20;42.20;;;;;;5043960;28;20344;-52
2021/09/04 12:31:18;;;;;;;4.97;3.13;;;26.30;43.40;;;;;;5044147;28;20015;-54
2021/09/04 12:34:03;;;;;;;5.03;3.13;;;26.30;43.00;;;;;;5043469;28;20053;-52
2021/09/04 12:40:28;;;;;;;;;;;26.30;42.40;;;;;;5044546;28;20327;-52
2021/09/04 12:43:12;;;;;;;4.13;3.15;;;26.30;42.30;;;;;;5048237;28;19912;-53
2021/09/04 12:46:00;;;;;;;5.10;3.17;;;26.40;42.00;;;;;;5042777;28;20035;-52
2021/09/04 12:52:30;;;;;;;4.53;3.22;;;26.30;41.20;;;;;;5043773;28;20206;-52
2021/09/04 12:55:14;;;;;;;5.90;3.30;;;26.30;41.20;;;;;;5043686;28;20036;-52
2021/09/04 12:58:05;;;;;;;5.43;3.05;;;26.30;39.70;;;;;;5042608;28;20044;-55
2021/09/04 13:04:30;;;;;;;5.07;3.17;;;25.80;37.80;;;;;;5043874;28;20064;-53
2021/09/04 13:07:16;;;;;;;4.13;2.97;;;25.80;40.10;;;;;;5043394;28;20036;-54
2021/09/04 13:10:00;;;;;;;4.38;2.92;;;26.10;42.70;;;;;;5043262;28;20106;-52
2021/09/04 13:16:27;;;;;;;4.43;2.97;;;26.20;42.70;;;;;;5043463;28;20009;-53
2021/09/04 13:19:11;;;;;;;6.20;3.00;;;26.20;39.80;;;;;;5041845;28;20037;-51
2021/09/04 13:21:55;;;;;;;5.00;3.00;;;26.30;41.70;;;;;;5043158;28;20036;-51
2021/09/04 13:28:21;;;;;;;4.45;3.10;;;26.50;40.30;;;;;;5045998;28;20431;-53
2021/09/04 13:31:05;;;;;;;3.70;2.47;;;26.40;39.20;;;;;;5046719;28;20053;-53
2021/09/04 13:33:49;;;;;;;6.55;3.05;;;26.40;42.40;;;;;;5046366;28;20394;-53
2021/09/04 13:36:34;;;;;;;4.35;2.97;;;26.50;41.60;;;;;;5046912;28;20024;-54
2021/09/04 13:39:18;;;;;;;3.88;2.75;;;26.30;39.00;;;;;;5046816;28;20060;-54
2021/09/04 13:42:02;;;;;;;6.93;2.97;;;26.20;39.10;;;;;;5047494;28;20060;-54
2021/09/04 13:44:46;;;;;;;4.10;3.08;;;26.20;39.70;;;;;;5046974;28;20044;-53
2021/09/04 13:47:31;;;;;;;4.45;3.00;;;26.30;41.20;;;;;;5046705;28;20056;-54
2021/09/04 13:50:15;;;;;;;4.95;3.33;;;26.40;43.40;;;;;;5046440;28;20319;-54
2021/09/04 13:53:00;;;;;;;4.18;3.00;;;26.20;39.60;;;;;;5046277;28;20095;-54
2021/09/04 13:55:44;;;;;;;4.10;3.03;;;26.10;38.80;;;;;;5046472;28;20099;-52
2021/09/04 13:58:28;;;;;;;4.55;2.95;;;26.00;38.60;;;;;;5045229;28;20093;-51
2021/09/04 14:01:12;;;;;;;4.93;3.28;;;26.10;39.80;;;;;;5045278;28;20256;-53
2021/09/04 14:03:56;;;;;;;4.75;3.13;;;26.20;41.70;;;;;;5045203;28;20104;-53
2021/09/04 14:10:22;;;;;;;;;;;26.00;38.70;;;;;;5047202;28;20012;-51
2021/09/04 14:13:06;;;;;;;4.63;3.13;;;26.00;38.80;;;;;;5045964;28;20096;-53
2021/09/04 14:15:50;;;;;;;4.68;3.30;;;26.00;40.20;;;;;;5045035;28;20079;-54
2021/09/04 14:18:35;;;;;;;5.22;3.20;;;25.90;39.60;;;;;;5046300;28;20067;-53
2021/09/04 14:21:19;;;;;;;4.97;3.08;;;26.00;40.50;;;;;;5046042;28;20056;-54
2021/09/04 14:24:03;;;;;;;5.40;3.38;;;26.10;41.60;;;;;;5045676;28;20096;-54
2021/09/04 14:26:48;;;;;;;5.93;3.60;;;26.00;40.10;;;;;;5046161;28;20068;-52
2021/09/04 14:29:33;;;;;;;5.35;3.15;;;26.00;41.00;;;;;;5046331;28;20033;-53
2021/09/04 14:32:17;;;;;;;6.78;3.42;;;25.90;39.90;;;;;;5046114;28;20052;-51
2021/09/04 14:35:03;;;;;;;7.90;3.70;;;26.00;41.50;;;;;;5045754;28;20048;-53
2021/09/04 14:37:47;;;;;;;4.85;3.40;;;26.10;41.60;;;;;;5045169;28;20091;-51
2021/09/04 14:40:31;;;;;;;5.47;3.45;;;26.20;42.70;;;;;;5046196;28;20075;-52
2021/09/04 14:43:15;;;;;;;5.05;3.42;;;26.00;40.90;;;;;;5045537;28;20056;-52
2021/09/04 14:46:00;;;;;;;6.00;3.42;;;25.90;40.60;;;;;;5044574;28;20084;-52
2021/09/04 14:52:25;;;;;;;;;;;26.00;42.10;;;;;;5046027;28;20081;-50
2021/09/04 14:55:10;;;;;;;5.25;3.53;;;26.00;42.40;;;;;;5045567;28;19943;-53
2021/09/04 14:57:54;;;;;;;5.28;3.58;;;26.00;42.70;;;;;;5045331;28;20032;-51
2021/09/04 15:00:38;;;;;;;5.70;3.72;;;26.00;43.00;;;;;;5039305;28;20048;-53
2021/09/04 15:03:23;;;;;;;4.47;3.42;;;25.90;42.40;;;;;;5045082;28;20040;-54
2021/09/04 15:06:07;;;;;;;7.93;4.40;;;25.70;41.10;;;;;;5045519;28;20083;-54
2021/09/04 15:08:51;;;;;;;6.80;4.10;;;25.70;41.90;;;;;;5045712;28;20035;-53
2021/09/04 15:11:36;;;;;;;9.57;5.63;;;25.70;41.50;;;;;;5044916;28;20351;-54
2021/09/04 15:14:20;;;;;;;7.57;4.63;;;25.80;43.30;;;;;;5044963;28;20028;-50
2021/09/04 15:17:05;;;;;;;7.07;4.40;;;25.70;42.00;;;;;;5045225;28;20400;-51
2021/09/04 15:19:49;;;;;;;4.50;3.50;;;25.80;42.00;;;;;;5044913;28;20097;-51
2021/09/04 15:22:34;;;;;;;5.60;3.60;;;25.70;41.40;;;;;;5043839;28;20096;-51
2021/09/04 15:25:18;;;;;;;8.25;3.20;;;25.50;40.90;;;;;;5044816;28;20032;-52
2021/09/04 15:28:02;;;;;;;5.88;3.78;;;25.50;41.40;;;;;;5044753;28;20116;-53
2021/09/04 15:30:46;;;;;;;6.30;3.40;;;25.40;41.50;;;;;;5044670;28;20032;-49
2021/09/04 15:33:30;;;;;;;4.10;3.05;;;25.40;42.50;;;;;;5044435;28;20372;-51
2021/09/04 15:36:15;;;;;;;7.75;3.63;;;25.40;43.70;;;;;;5044503;28;20103;-53
2021/09/04 15:39:00;;;;;;;4.40;2.97;;;25.30;42.30;;;;;;5045034;28;20366;-53
2021/09/04 15:41:44;;;;;;;4.50;3.22;;;25.30;41.80;;;;;;5044471;28;20347;-53
2021/09/04 15:44:28;;;;;;;7.00;3.30;;;25.30;41.80;;;;;;5044532;28;20039;-51
2021/09/04 15:47:13;;;;;;;5.28;3.55;;;25.30;41.40;;;;;;5044567;28;20032;-52
2021/09/04 15:49:57;;;;;;;5.25;3.20;;;25.20;41.40;;;;;;5043538;28;20037;-49
2021/09/04 15:52:41;;;;;;;4.10;3.00;;;25.20;41.30;;;;;;5044141;28;20025;-50
2021/09/04 15:55:26;;;;;;;7.68;3.83;;;25.20;42.60;;;;;;5044476;28;20071;-53
2021/09/04 15:58:10;;;;;;;7.30;3.03;;;25.20;41.30;;;;;;5044316;28;20048;-50
2021/09/04 16:00:55;;;;;;;6.20;3.22;;;25.10;42.90;;;;;;5044206;28;20253;-49
2021/09/04 16:03:38;;;;;;;7.47;3.13;;;25.20;41.90;;;;;;5043823;28;20344;-50
2021/09/04 16:06:23;;;;;;;5.43;3.70;;;25.10;41.90;;;;;;5044439;28;20020;-50
2021/09/04 16:09:08;;;;;;;6.72;3.85;;;25.10;43.20;;;;;;5044396;28;20028;-51
2021/09/04 16:11:52;;;;;;;7.10;3.53;;;25.10;41.90;;;;;;5043982;28;20086;-52
2021/09/04 16:14:36;;;;;;;5.75;3.45;;;25.10;42.40;;;;;;5043724;28;20040;-50
2021/09/04 16:17:22;;;;;;;7.03;3.05;;;25.00;42.60;;;;;;5043719;28;20113;-50
2021/09/04 16:20:07;;;;;;;4.85;3.22;;;25.00;42.60;;;;;;5043715;28;20089;-51
2021/09/04 16:22:50;;;;;;;5.13;3.63;;;25.00;42.00;;;;;;5043652;28;20076;-50
2021/09/04 16:25:37;;;;;;;6.05;3.20;;;24.90;41.40;;;;;;5043933;28;20033;-51
2021/09/04 16:28:21;;;;;;;7.05;3.65;;;24.90;42.10;;;;;;5043640;28;20079;-50
2021/09/04 16:31:05;;;;;;;6.45;3.90;;;24.90;42.60;;;;;;5043483;28;20044;-53
2021/09/04 16:33:50;;;;;;;6.35;3.47;;;24.80;43.20;;;;;;5043491;28;20305;-50
2021/09/04 16:36:34;;;;;;;5.50;3.80;;;24.80;43.50;;;;;;5043584;28;20141;-49
2021/09/04 16:39:18;;;;;;;5.03;3.47;;;24.70;42.70;;;;;;5043599;28;20181;-49
2021/09/04 16:42:03;;;;;;;7.32;3.83;;;24.70;43.20;;;;;;5043878;28;20073;-52
2021/09/04 16:44:47;;;;;;;5.38;3.08;;;24.70;44.20;;;;;;5043581;28;20052;-52
2021/09/04 16:47:31;;;;;;;6.60;3.30;;;24.60;43.30;;;;;;5043818;28;20100;-51
2021/09/04 16:50:17;;;;;;;4.57;3.15;;;24.50;43.30;;;;;;5043844;28;20033;-53
2021/09/04 16:53:01;;;;;;;5.95;3.58;;;24.40;43.80;;;;;;5043937;28;20036;-51
2021/09/04 16:55:45;;;;;;;6.43;3.50;;;24.40;44.60;;;;;;5043191;28;20063;-50
2021/09/04 16:58:29;;;;;;;5.60;3.90;;;24.30;45.80;;;;;;5043428;28;20033;-49
2021/09/04 17:01:13;;;;;;;7.38;3.58;;;24.30;46.50;;;;;;5044470;28;20343;-49
2021/09/04 17:03:58;;;;;;;9.18;3.80;;;24.20;46.30;;;;;;5047249;28;20035;-49
2021/09/04 17:06:42;;;;;;;6.03;3.67;;;24.20;46.20;;;;;;5047106;28;20056;-53
2021/09/04 17:09:26;;;;;;;7.57;3.47;;;24.10;45.00;;;;;;5047108;28;20032;-50
2021/09/04 17:12:11;;;;;;;5.18;3.58;;;24.10;46.00;;;;;;5047500;28;20055;-50
2021/09/04 17:14:54;;;;;;;9.55;3.72;;;24.00;46.30;;;;;;5047601;28;20032;-53
2021/09/04 17:17:39;;;;;;;8.48;3.92;;;23.90;47.10;;;;;;5047004;28;20118;-51
2021/09/04 17:20:23;;;;;;;8.93;4.00;;;23.80;48.00;;;;;;5047265;28;20049;-49
2021/09/04 17:23:07;;;;;;;6.35;3.60;;;23.80;47.60;;;;;;5047225;28;20296;-51